createdAt,value
2022-10-12T00:00:08.571Z,20.15
2022-10-12T00:02:36.640Z,20.13
2022-10-12T00:05:04.604Z,20.13
2022-10-12T00:07:32.634Z,20.12
2022-10-12T00:10:00.647Z,20.06
2022-10-12T00:12:28.489Z,20.09
2022-10-12T00:14:56.477Z,20.14
2022-10-12T00:17:24.497Z,20.08
2022-10-12T00:19:52.505Z,20.11
2022-10-12T00:22:20.378Z,20.12
2022-10-12T00:24:48.427Z,20.09
2022-10-12T00:27:16.430Z,20.06
2022-10-12T00:29:44.439Z,20.03
2022-10-12T00:32:12.462Z,20.07
2022-10-12T00:34:40.475Z,20.09
2022-10-12T00:37:08.336Z,20.07
2022-10-12T00:39:36.360Z,20.06
2022-10-12T00:42:04.451Z,20.01
2022-10-12T00:44:45.705Z,20.04
2022-10-12T00:47:19.843Z,19.99
2022-10-12T00:49:51.123Z,20.04
2022-10-12T00:52:21.922Z,20.07
2022-10-12T00:54:51.090Z,20.07
2022-10-12T00:57:19.888Z,20.03
2022-10-12T00:59:54.277Z,20.01
2022-10-12T01:02:24.232Z,20.04
2022-10-12T01:04:52.953Z,20.03
2022-10-12T01:07:20.973Z,20.03
2022-10-12T01:09:49.380Z,20.00
2022-10-12T01:12:17.404Z,19.97
2022-10-12T01:14:45.476Z,19.99
2022-10-12T01:17:33.357Z,19.99
2022-10-12T01:21:34.561Z,19.96
2022-10-12T01:24:08.799Z,19.96
2022-10-12T01:26:45.398Z,19.99
2022-10-12T01:30:05.478Z,20.00
2022-10-12T01:37:38.624Z,19.99
2022-10-12T01:40:10.513Z,19.96
2022-10-12T01:42:40.517Z,19.97
2022-10-12T01:45:10.116Z,19.95
2022-10-12T01:47:39.582Z,19.94
2022-10-12T01:50:10.624Z,19.95
2022-10-12T01:53:05.286Z,19.92
2022-10-12T01:55:44.284Z,19.93
2022-10-12T01:59:45.660Z,19.90
2022-10-12T02:03:44.143Z,19.92
2022-10-12T02:06:18.436Z,19.93
2022-10-12T02:08:50.157Z,19.91
2022-10-12T02:11:19.494Z,19.91
2022-10-12T02:14:29.219Z,19.88
2022-10-12T02:16:59.524Z,19.91
2022-10-12T02:19:28.855Z,19.88
2022-10-12T02:21:58.591Z,19.90
2022-10-12T02:24:28.079Z,19.89
2022-10-12T02:26:57.095Z,19.79
2022-10-12T02:29:27.964Z,19.87
2022-10-12T02:32:11.741Z,19.87
2022-10-12T02:34:45.281Z,19.88
2022-10-12T02:37:21.995Z,19.87
2022-10-12T02:39:54.278Z,19.86
2022-10-12T02:42:27.551Z,19.83
2022-10-12T02:44:56.297Z,19.84
2022-10-12T02:47:25.336Z,19.83
2022-10-12T02:49:54.612Z,19.81
2022-10-12T02:52:23.974Z,19.82
2022-10-12T02:54:52.042Z,19.79
2022-10-12T02:57:20.025Z,19.81
2022-10-12T02:59:48.122Z,19.83
2022-10-12T03:02:16.108Z,19.83
2022-10-12T03:04:44.189Z,19.79
2022-10-12T03:07:12.269Z,19.78
2022-10-12T03:09:40.267Z,19.75
2022-10-12T03:12:08.252Z,19.75
2022-10-12T03:14:37.314Z,19.77
2022-10-12T03:17:05.332Z,19.77
2022-10-12T03:19:33.361Z,19.80
2022-10-12T03:22:01.389Z,19.76
2022-10-12T03:24:29.392Z,19.76
2022-10-12T03:26:57.411Z,19.79
2022-10-12T03:29:25.249Z,19.78
2022-10-12T03:31:53.074Z,19.75
2022-10-12T03:34:21.088Z,19.75
2022-10-12T03:36:49.078Z,19.72
2022-10-12T03:39:17.082Z,19.78
2022-10-12T03:41:45.084Z,19.75
2022-10-12T03:44:13.090Z,19.76
2022-10-12T03:46:41.077Z,19.77
2022-10-12T03:49:09.121Z,19.77
2022-10-12T03:51:36.959Z,19.74
2022-10-12T03:54:04.964Z,19.76
2022-10-12T03:56:32.807Z,19.73
2022-10-12T03:59:00.799Z,19.70
2022-10-12T04:01:31.903Z,19.71
2022-10-12T04:04:00.006Z,19.70
2022-10-12T04:06:28.012Z,19.73
2022-10-12T04:08:56.029Z,19.72
2022-10-12T04:11:24.021Z,19.70
2022-10-12T04:13:52.056Z,19.69
2022-10-12T04:16:20.057Z,19.70
2022-10-12T04:18:47.923Z,19.70
2022-10-12T04:21:17.079Z,19.68
2022-10-12T04:23:44.934Z,19.66
2022-10-12T04:26:12.924Z,19.65
2022-10-12T04:28:40.987Z,19.60
2022-10-12T04:31:08.998Z,19.66
2022-10-12T04:33:37.018Z,19.65
2022-10-12T04:36:05.042Z,19.67
2022-10-12T04:38:32.962Z,19.58
2022-10-12T04:41:00.971Z,19.67
2022-10-12T04:43:28.965Z,19.67
2022-10-12T04:45:58.505Z,19.65
2022-10-12T04:48:29.275Z,19.64
2022-10-12T04:50:57.319Z,19.63
2022-10-12T04:53:25.973Z,19.61
2022-10-12T04:55:53.970Z,19.62
2022-10-12T04:58:21.998Z,19.62
2022-10-12T05:00:50.002Z,19.60
2022-10-12T05:03:17.857Z,19.60
2022-10-12T05:05:45.555Z,19.60
2022-10-12T05:08:13.605Z,19.59
2022-10-12T05:10:41.609Z,19.60
2022-10-12T05:13:09.617Z,19.62
2022-10-12T05:15:37.452Z,19.58
2022-10-12T05:18:05.725Z,19.57
2022-10-12T05:20:33.746Z,19.57
2022-10-12T05:23:01.819Z,19.55
2022-10-12T05:25:29.804Z,19.53
2022-10-12T05:27:57.915Z,19.47
2022-10-12T05:30:25.901Z,19.57
2022-10-12T05:32:53.730Z,19.73
2022-10-12T05:35:21.764Z,19.84
2022-10-12T05:37:49.911Z,19.88
2022-10-12T05:40:17.791Z,19.82
2022-10-12T05:42:45.651Z,19.81
2022-10-12T05:45:13.499Z,19.87
2022-10-12T05:47:41.514Z,19.91
2022-10-12T05:50:09.564Z,19.90
2022-10-12T05:52:37.947Z,19.88
2022-10-12T05:55:06.376Z,19.89
2022-10-12T05:57:34.514Z,19.89
2022-10-12T06:00:02.372Z,19.87
2022-10-12T06:02:30.370Z,19.88
2022-10-12T06:04:58.370Z,19.88
2022-10-12T06:07:26.390Z,19.88
2022-10-12T06:09:54.635Z,19.90
2022-10-12T06:12:23.693Z,19.91
2022-10-12T06:14:53.611Z,19.91
2022-10-12T06:17:21.662Z,19.92
2022-10-12T06:19:49.521Z,19.96
2022-10-12T06:22:17.554Z,20.06
2022-10-12T06:24:45.569Z,20.13
2022-10-12T06:27:14.065Z,20.21
2022-10-12T06:29:41.885Z,20.23
2022-10-12T06:32:09.901Z,20.27
2022-10-12T06:34:37.910Z,20.27
2022-10-12T06:37:05.939Z,20.26
2022-10-12T06:39:33.913Z,20.31
2022-10-12T06:42:01.954Z,20.38
2022-10-12T06:44:29.787Z,20.24
2022-10-12T06:46:57.789Z,20.22
2022-10-12T06:49:25.792Z,20.28
2022-10-12T06:51:53.793Z,20.32
2022-10-12T06:54:21.621Z,20.27
2022-10-12T06:56:49.472Z,20.26
2022-10-12T06:59:18.932Z,20.24
2022-10-12T07:01:46.961Z,20.24
2022-10-12T07:04:14.997Z,20.25
2022-10-12T07:06:42.997Z,20.27
2022-10-12T07:09:11.069Z,20.28
2022-10-12T07:11:38.913Z,20.28
2022-10-12T07:14:06.777Z,20.29
2022-10-12T07:16:34.820Z,20.31
2022-10-12T07:19:02.830Z,20.40
2022-10-12T07:21:30.860Z,20.35
2022-10-12T07:23:58.688Z,20.32
2022-10-12T07:26:26.696Z,20.28
2022-10-12T07:28:54.725Z,20.24
2022-10-12T07:31:22.761Z,20.21
2022-10-12T07:33:50.758Z,20.22
2022-10-12T07:36:21.645Z,20.22
2022-10-12T07:38:50.204Z,20.23
2022-10-12T07:41:18.240Z,20.23
2022-10-12T07:43:46.227Z,20.24
2022-10-12T07:46:14.429Z,20.27
2022-10-12T07:48:47.214Z,20.32
2022-10-12T07:51:18.180Z,20.37
2022-10-12T07:53:46.433Z,20.41
2022-10-12T07:56:17.258Z,20.45
2022-10-12T07:58:49.154Z,20.51
2022-10-12T08:01:17.983Z,20.54
2022-10-12T08:03:46.139Z,20.61
2022-10-12T08:06:15.577Z,20.67
2022-10-12T08:08:44.108Z,20.70
2022-10-12T08:11:12.098Z,20.78
2022-10-12T08:13:40.391Z,20.84
2022-10-12T08:16:13.849Z,20.90
2022-10-12T08:18:41.693Z,20.98
2022-10-12T08:21:10.446Z,21.04
2022-10-12T08:23:38.655Z,21.15
2022-10-12T08:26:07.158Z,21.35
2022-10-12T08:28:36.777Z,21.50
2022-10-12T08:31:08.802Z,21.68
2022-10-12T08:33:36.810Z,21.72
2022-10-12T08:36:05.396Z,21.60
2022-10-12T08:38:33.845Z,21.85
2022-10-12T08:44:09.129Z,21.99
2022-10-12T08:46:37.146Z,21.83
2022-10-12T08:49:10.855Z,21.59
2022-10-12T08:51:50.296Z,21.51
2022-10-12T08:54:20.901Z,21.35
2022-10-12T08:56:49.302Z,21.09
2022-10-12T08:59:18.822Z,21.11
2022-10-12T09:04:44.985Z,21.24
2022-10-12T09:07:20.277Z,21.33
2022-10-12T09:09:57.116Z,21.33
2022-10-12T09:12:42.550Z,21.23
2022-10-12T09:15:25.447Z,21.36
2022-10-12T09:17:53.978Z,21.41
2022-10-12T09:20:22.953Z,21.39
2022-10-12T09:23:03.458Z,21.38
2022-10-12T09:25:31.284Z,21.34
2022-10-12T09:28:12.842Z,21.32
2022-10-12T09:30:43.492Z,21.31
2022-10-12T09:33:22.159Z,21.29
2022-10-12T09:35:50.931Z,21.23
2022-10-12T09:38:18.954Z,21.21
2022-10-12T09:40:47.251Z,21.18
2022-10-12T09:43:15.591Z,20.98
2022-10-12T09:45:43.984Z,21.21
2022-10-12T09:48:16.551Z,21.16
2022-10-12T09:50:57.672Z,21.12
2022-10-12T09:53:37.623Z,21.11
2022-10-12T09:56:08.918Z,21.15
2022-10-12T09:58:50.469Z,21.21
2022-10-12T10:01:36.788Z,20.85
2022-10-12T10:04:08.980Z,21.08
2022-10-12T10:06:38.130Z,21.17
2022-10-12T10:09:06.310Z,21.19
2022-10-12T10:11:35.008Z,21.22
2022-10-12T10:14:03.010Z,21.20
2022-10-12T10:16:31.110Z,21.20
2022-10-12T10:19:00.933Z,21.19
2022-10-12T10:21:31.289Z,21.20
2022-10-12T10:24:06.424Z,21.12
2022-10-12T10:26:58.248Z,21.11
2022-10-12T10:29:31.800Z,21.06
2022-10-12T10:32:29.759Z,21.14
2022-10-12T10:35:17.765Z,21.14
2022-10-12T10:37:46.989Z,21.13
2022-10-12T10:40:19.235Z,21.13
2022-10-12T10:42:53.331Z,21.14
2022-10-12T10:45:28.569Z,21.15
2022-10-12T10:48:01.249Z,21.17
2022-10-12T10:50:35.645Z,21.13
2022-10-12T10:53:05.834Z,21.10
2022-10-12T10:55:45.214Z,21.04
2022-10-12T10:58:23.210Z,21.10
2022-10-12T11:00:51.978Z,20.98
2022-10-12T11:03:31.483Z,21.02
2022-10-12T11:07:32.602Z,21.09
2022-10-12T11:10:03.645Z,21.06
2022-10-12T11:12:33.979Z,21.01
2022-10-12T11:15:08.363Z,21.00
2022-10-12T11:17:40.084Z,20.99
2022-10-12T11:21:41.835Z,20.96
2022-10-12T11:24:13.226Z,20.94
2022-10-12T11:26:47.305Z,20.93
2022-10-12T11:29:17.571Z,20.86
2022-10-12T11:31:58.744Z,20.94
2022-10-12T11:34:28.996Z,21.08
2022-10-12T11:37:18.240Z,21.09
2022-10-12T11:39:50.479Z,21.06
2022-10-12T11:42:43.181Z,21.08
2022-10-12T11:45:29.985Z,21.06
2022-10-12T11:48:02.436Z,21.02
2022-10-12T11:50:48.057Z,20.98
2022-10-12T11:55:07.796Z,20.97
2022-10-12T11:57:37.463Z,20.96
2022-10-12T12:00:07.594Z,20.94
2022-10-12T12:02:42.870Z,20.93
2022-10-12T12:05:16.685Z,20.92
2022-10-12T12:07:56.553Z,20.95
2022-10-12T12:11:06.487Z,20.93
2022-10-12T12:13:34.715Z,20.93
2022-10-12T12:16:29.853Z,20.90
2022-10-12T12:19:18.356Z,20.91
2022-10-12T12:22:04.796Z,20.91
2022-10-12T12:24:32.803Z,20.90
2022-10-12T12:27:00.734Z,20.88
2022-10-12T12:29:29.683Z,20.89
2022-10-12T12:31:59.257Z,20.87
2022-10-12T12:34:28.266Z,20.88
2022-10-12T12:37:11.173Z,20.99
2022-10-12T12:39:45.232Z,20.91
2022-10-12T12:42:21.844Z,20.91
2022-10-12T12:44:49.852Z,20.90
2022-10-12T12:47:44.442Z,20.90
2022-10-12T12:50:32.040Z,20.91
2022-10-12T12:53:08.516Z,20.93
2022-10-12T12:55:50.954Z,20.92
2022-10-12T12:58:30.858Z,20.93
2022-10-12T13:01:17.659Z,20.93
2022-10-12T13:06:44.064Z,20.96
2022-10-12T13:09:23.135Z,20.96
2022-10-12T13:12:09.352Z,20.96
2022-10-12T13:14:43.655Z,20.96
2022-10-12T13:17:32.390Z,20.98
2022-10-12T13:20:06.004Z,20.96
2022-10-12T13:22:35.392Z,21.00
2022-10-12T13:25:07.152Z,21.15
2022-10-12T13:27:42.825Z,21.23
2022-10-12T13:30:49.466Z,21.23
2022-10-12T13:33:35.720Z,21.18
2022-10-12T13:36:20.821Z,21.15
2022-10-12T13:38:54.798Z,21.12
2022-10-12T13:41:23.623Z,21.08
2022-10-12T13:44:01.524Z,21.05
2022-10-12T13:46:50.676Z,21.04
2022-10-12T13:49:23.048Z,21.04
2022-10-12T13:51:56.252Z,21.03
2022-10-12T13:54:41.061Z,21.01
2022-10-12T13:57:32.349Z,21.03
2022-10-12T14:00:09.194Z,21.03
2022-10-12T14:02:37.184Z,21.03
2022-10-12T14:05:15.345Z,21.05
2022-10-12T14:07:44.817Z,21.04
2022-10-12T14:10:20.838Z,21.04
2022-10-12T14:12:52.973Z,21.04
2022-10-12T14:15:21.732Z,21.03
2022-10-12T14:17:54.410Z,21.09
2022-10-12T14:20:34.250Z,21.07
2022-10-12T14:23:04.164Z,21.04
2022-10-12T14:25:32.906Z,21.04
2022-10-12T14:28:05.440Z,21.04
2022-10-12T14:30:34.929Z,21.05
2022-10-12T14:34:54.432Z,21.02
2022-10-12T14:37:24.240Z,21.01
2022-10-12T14:39:59.099Z,21.00
2022-10-12T14:42:34.269Z,21.05
2022-10-12T14:45:03.979Z,21.02
2022-10-12T14:47:33.341Z,21.01
2022-10-12T14:50:07.436Z,21.00
2022-10-12T14:52:42.807Z,20.96
2022-10-12T14:55:15.000Z,20.99
2022-10-12T14:57:43.004Z,20.98
2022-10-12T15:00:14.042Z,21.00
2022-10-12T15:02:42.563Z,20.98
2022-10-12T15:05:12.019Z,20.99
2022-10-12T15:07:40.040Z,20.96
2022-10-12T15:10:08.421Z,20.82
2022-10-12T15:12:36.328Z,20.95
2022-10-12T15:15:18.896Z,20.96
2022-10-12T15:17:46.929Z,21.00
2022-10-12T15:20:14.795Z,21.04
2022-10-12T15:22:44.462Z,21.05
2022-10-12T15:25:17.469Z,21.02
2022-10-12T15:27:45.510Z,21.08
2022-10-12T15:30:13.723Z,21.02
2022-10-12T15:32:41.884Z,20.97
2022-10-12T15:35:24.050Z,21.03
2022-10-12T15:37:52.195Z,21.04
2022-10-12T15:40:20.752Z,21.01
2022-10-12T15:42:48.757Z,21.10
2022-10-12T15:45:17.542Z,21.10
2022-10-12T15:47:46.539Z,21.13
2022-10-12T15:50:14.704Z,21.18
2022-10-12T15:52:43.214Z,21.08
2022-10-12T15:55:21.716Z,21.05
2022-10-12T15:57:51.162Z,21.02
2022-10-12T16:00:20.622Z,21.01
2022-10-12T16:02:48.613Z,21.03
2022-10-12T16:05:32.714Z,21.02
2022-10-12T16:08:01.071Z,21.06
2022-10-12T16:10:30.493Z,21.02
2022-10-12T16:12:58.678Z,21.00
2022-10-12T16:15:31.281Z,21.00
2022-10-12T16:17:59.842Z,21.01
2022-10-12T16:20:28.706Z,21.01
2022-10-12T16:22:56.706Z,21.11
2022-10-12T16:25:25.279Z,21.19
2022-10-12T16:27:54.363Z,21.08
2022-10-12T16:30:22.448Z,21.04
2022-10-12T16:32:50.477Z,21.03
2022-10-12T16:35:18.337Z,21.07
2022-10-12T16:37:46.357Z,20.65
2022-10-12T16:40:14.677Z,20.67
2022-10-12T16:42:42.685Z,20.85
2022-10-12T16:45:11.369Z,20.82
2022-10-12T16:47:42.793Z,21.03
2022-10-12T16:50:11.201Z,21.09
2022-10-12T16:52:39.034Z,21.11
2022-10-12T16:55:07.393Z,21.04
2022-10-12T16:57:35.437Z,20.97
2022-10-12T17:00:04.318Z,20.91
2022-10-12T17:02:32.356Z,20.95
2022-10-12T17:05:00.369Z,20.93
2022-10-12T17:07:28.709Z,20.93
2022-10-12T17:09:56.718Z,20.94
2022-10-12T17:12:25.680Z,20.96
2022-10-12T17:14:53.847Z,21.04
2022-10-12T17:17:21.869Z,20.99
2022-10-12T17:19:49.940Z,21.00
2022-10-12T17:22:18.392Z,20.99
2022-10-12T17:24:46.575Z,20.98
2022-10-12T17:27:15.518Z,20.98
2022-10-12T17:29:43.733Z,20.98
2022-10-12T17:32:12.259Z,20.95
2022-10-12T17:34:41.129Z,20.98
2022-10-12T17:37:12.712Z,20.96
2022-10-12T17:39:42.466Z,20.99
2022-10-12T17:42:11.215Z,21.00
2022-10-12T17:44:39.233Z,21.01
2022-10-12T17:47:07.037Z,21.01
2022-10-12T17:49:35.058Z,21.02
2022-10-12T17:52:03.081Z,21.01
2022-10-12T17:54:32.250Z,20.99
2022-10-12T17:57:00.239Z,20.99
2022-10-12T17:59:28.322Z,21.00
2022-10-12T18:01:56.336Z,20.99
2022-10-12T18:04:24.466Z,20.99
2022-10-12T18:06:52.500Z,21.00
2022-10-12T18:09:20.511Z,21.00
2022-10-12T18:11:48.535Z,21.01
2022-10-12T18:14:16.536Z,21.02
2022-10-12T18:16:44.557Z,21.02
2022-10-12T18:19:12.575Z,21.03
2022-10-12T18:21:40.593Z,21.09
2022-10-12T18:24:16.162Z,21.01
2022-10-12T18:26:45.412Z,21.01
2022-10-12T18:29:13.249Z,20.99
2022-10-12T18:31:41.264Z,21.01
2022-10-12T18:34:09.293Z,21.00
2022-10-12T18:36:37.972Z,20.99
2022-10-12T18:39:06.009Z,20.98
2022-10-12T18:41:34.033Z,20.95
2022-10-12T18:44:03.368Z,20.94
2022-10-12T18:46:32.119Z,20.92
2022-10-12T18:49:02.342Z,20.90
2022-10-12T18:51:31.621Z,20.90
2022-10-12T18:54:00.345Z,20.89
2022-10-12T18:56:28.994Z,20.89
2022-10-12T18:58:57.844Z,20.89
2022-10-12T19:01:26.856Z,20.88
2022-10-12T19:03:55.938Z,20.88
2022-10-12T19:06:25.362Z,20.85
2022-10-12T19:08:54.317Z,20.85
2022-10-12T19:11:22.977Z,20.85
2022-10-12T19:13:54.714Z,20.84
2022-10-12T19:16:22.960Z,20.82
2022-10-12T19:18:55.261Z,20.83
2022-10-12T19:21:23.272Z,20.83
2022-10-12T19:23:51.275Z,20.84
2022-10-12T19:26:22.828Z,20.81
2022-10-12T19:28:51.606Z,20.84
2022-10-12T19:31:24.031Z,20.77
2022-10-12T19:33:52.048Z,20.80
2022-10-12T19:36:20.057Z,20.79
2022-10-12T19:38:48.043Z,20.80
2022-10-12T19:41:15.908Z,20.80
2022-10-12T19:43:43.911Z,20.80
2022-10-12T19:46:12.664Z,20.79
2022-10-12T19:48:44.752Z,20.78
2022-10-12T19:51:13.339Z,20.77
2022-10-12T19:53:41.471Z,20.78
2022-10-12T19:56:13.930Z,20.77
2022-10-12T19:58:42.737Z,20.73
2022-10-12T20:01:17.942Z,20.76
2022-10-12T20:03:47.990Z,20.76
2022-10-12T20:06:16.453Z,20.76
2022-10-12T20:08:45.013Z,20.77
2022-10-12T20:11:18.324Z,20.75
2022-10-12T20:13:48.357Z,20.74
2022-10-12T20:16:17.661Z,20.76
2022-10-12T20:18:46.039Z,20.74
2022-10-12T20:21:15.152Z,20.74
2022-10-12T20:23:43.819Z,20.75
2022-10-12T20:26:16.115Z,20.75
2022-10-12T20:28:44.145Z,20.76
2022-10-12T20:31:12.281Z,20.74
2022-10-12T20:33:40.383Z,20.70
2022-10-12T20:36:09.838Z,20.68
2022-10-12T20:38:38.434Z,20.72
2022-10-12T20:41:07.996Z,20.73
2022-10-12T20:43:37.094Z,20.73
2022-10-12T20:46:05.854Z,20.71
2022-10-12T20:48:33.961Z,20.74
2022-10-12T20:51:05.938Z,20.73
2022-10-12T20:53:34.207Z,20.71
2022-10-12T20:56:09.735Z,20.71
2022-10-12T20:58:37.677Z,20.73
2022-10-12T21:01:06.385Z,20.57
2022-10-12T21:03:34.882Z,20.52
2022-10-12T21:06:10.670Z,20.63
2022-10-12T21:08:38.979Z,20.60
2022-10-12T21:11:07.095Z,20.58
2022-10-12T21:13:36.117Z,20.61
2022-10-12T21:16:04.226Z,20.61
2022-10-12T21:18:37.666Z,20.67
2022-10-12T21:21:08.508Z,20.68
2022-10-12T21:23:36.501Z,20.70
2022-10-12T21:26:11.733Z,20.70
2022-10-12T21:28:39.848Z,20.69
2022-10-12T21:31:08.307Z,20.69
2022-10-12T21:33:36.508Z,20.68
2022-10-12T21:36:08.514Z,20.69
2022-10-12T21:38:36.810Z,20.69
2022-10-12T21:41:05.175Z,20.67
2022-10-12T21:43:33.184Z,20.65
2022-10-12T21:46:04.657Z,20.67
2022-10-12T21:48:33.288Z,20.67
2022-10-12T21:51:01.745Z,20.59
2022-10-12T21:53:29.670Z,20.67
2022-10-12T21:55:57.692Z,20.67
2022-10-12T21:58:25.681Z,20.67
2022-10-12T22:00:53.735Z,20.65
2022-10-12T22:03:21.570Z,20.67
2022-10-12T22:05:49.580Z,20.65
2022-10-12T22:08:17.590Z,20.66
2022-10-12T22:10:48.312Z,20.64
2022-10-12T22:13:16.331Z,20.61
2022-10-12T22:15:44.321Z,20.61
2022-10-12T22:18:12.372Z,20.62
2022-10-12T22:20:40.377Z,20.64
2022-10-12T22:23:08.395Z,20.62
2022-10-12T22:25:36.414Z,20.62
2022-10-12T22:28:04.422Z,20.60
2022-10-12T22:30:32.272Z,20.61
2022-10-12T22:33:00.550Z,20.61
2022-10-12T22:35:28.586Z,20.62
2022-10-12T22:37:56.405Z,20.59
2022-10-12T22:40:24.264Z,20.60
2022-10-12T22:42:52.094Z,20.60
2022-10-12T22:45:22.365Z,20.60
2022-10-12T22:47:53.564Z,20.60
2022-10-12T22:50:21.589Z,20.59
2022-10-12T22:52:49.433Z,20.60
2022-10-12T22:55:17.275Z,20.57
2022-10-12T22:57:45.308Z,20.60
2022-10-12T23:00:13.938Z,20.58
2022-10-12T23:02:41.964Z,20.57
2022-10-12T23:05:09.986Z,20.58
2022-10-12T23:07:38.032Z,20.56
2022-10-12T23:10:06.228Z,20.56
2022-10-12T23:12:34.235Z,20.57
2022-10-12T23:15:02.236Z,20.57
2022-10-12T23:17:30.080Z,20.57
2022-10-12T23:19:57.922Z,20.56
2022-10-12T23:22:25.941Z,20.55
2022-10-12T23:24:53.941Z,20.55
2022-10-12T23:27:22.129Z,20.56
2022-10-12T23:29:50.149Z,20.55
2022-10-12T23:32:18.295Z,20.55
2022-10-12T23:34:46.396Z,20.55
2022-10-12T23:37:14.235Z,20.55
2022-10-12T23:39:45.161Z,20.55
2022-10-12T23:42:13.160Z,20.56
2022-10-12T23:44:41.172Z,20.55
2022-10-12T23:47:09.004Z,20.55
2022-10-12T23:49:37.032Z,20.56
2022-10-12T23:52:05.080Z,20.57
2022-10-12T23:54:33.135Z,20.55
2022-10-12T23:57:01.124Z,20.55
2022-10-12T23:59:29.144Z,20.56
